Latest Weather Observations for Wudinna Airport

IDS60801

Issued at 5:21 pm CST Wednesday 24 April 2019 (issued every 10 minutes, with the page automatically refreshed every 10 minutes)

About weather observations | Map of weather stations | Latest weather observations for SA | Other Formats
Station Details ID: 018083 Name: WUDINNA AERO Lat: -33.04 Lon: 135.45 Height: 86.4 m
Data from the previous 72 hours. | See also: Recent months at Wudinna Airport
Date/Time
CST
Temp
°C
App
Temp
°C
Dew
Point
°C
Rel
Hum
%
Delta-T
°C
Wind Press
QNH
hPa
Press
MSL
hPa
Rain since
9am
mm
Dir  Spd
km/h
Gust
km/h
Spd
kts
Gust
kts
24/05:00pm 19.3 14.6 9.2 52 5.3 S 24 30 13 16 1025.8 1025.7 0.0
24/04:30pm 20.1 15.3 8.8 48 5.9 S 24 32 13 17 1025.8 1025.7 0.0
24/04:00pm 20.2 16.1 8.8 48 6.0 S 20 33 11 18 1025.8 1025.7 0.0
24/03:30pm 21.5 17.5 9.1 45 6.6 S 20 30 11 16 1025.7 1025.6 0.0
24/03:00pm 20.0 15.9 8.7 48 5.9 SSE 20 30 11 16 1025.7 1025.6 0.0
24/02:30pm 19.8 15.3 8.5 48 5.9 S 22 33 12 18 1025.8 1025.7 0.0
24/02:00pm 20.5 16.5 9.1 48 6.1 S 20 32 11 17 1025.9 1025.8 0.0
24/01:30pm 20.7 16.8 9.6 49 5.9 SSE 20 28 11 15 1026.2 1026.1 0.0
24/01:00pm 20.9 17.0 9.5 48 6.1 S 20 30 11 16 1026.5 1026.4 0.0
24/12:30pm 20.5 17.1 9.1 48 6.0 SSE 17 28 9 15 1026.8 1026.7 0.0
24/12:00pm 20.0 16.4 8.4 47 6.0 SE 17 28 9 15 1027.2 1027.1 0.0
24/11:30am 18.7 15.2 8.7 52 5.2 S 17 30 9 16 1027.5 1027.4 0.0
24/11:00am 18.6 15.3 9.4 55 4.9 SSE 17 26 9 14 1027.7 1027.6 0.0
24/10:30am 17.0 15.5 10.6 66 3.4 SSE 9 19 5 10 1027.9 1027.8 0.0
24/10:00am 13.8 11.7 9.8 77 2.1 S 11 17 6 9 1028.1 1028.0 0.0
24/09:30am 11.5 10.6 10.6 94 0.5 S 6 9 3 5 1028.1 1028.0 0.0
24/09:00am 10.5 9.3 9.6 94 0.4 S 6 9 3 5 1028.2 1028.1 0.0
24/08:30am 10.0 8.1 9.1 94 0.4 SSE 9 13 5 7 1028.2 1028.1 0.0
24/08:00am 9.0 8.6 8.1 94 0.4 CALM 0 0 0 0 1027.8 1027.7 0.0
24/07:30am 7.4 6.6 6.5 94 0.4 CALM 0 6 0 3 1027.4 1027.3 0.0
24/07:00am 6.2 4.0 5.2 93 0.4 SW 6 7 3 4 1027.1 1027.0 0.0
24/06:30am 5.1 2.7 4.1 93 0.4 NW 6 7 3 4 1026.8 1026.7 0.0
24/06:00am 4.6 2.1 3.6 93 0.4 NW 6 7 3 4 1026.8 1026.7 0.0
24/05:30am 4.5 1.9 3.3 92 0.5 NW 6 7 3 4 1026.7 1026.6 0.0
24/05:00am 4.5 1.9 3.3 92 0.5 NW 6 7 3 4 1026.5 1026.4 0.0
24/04:30am 4.2 1.4 2.9 91 0.5 NW 7 7 4 4 1026.4 1026.3 0.0
24/04:00am 4.8 3.4 3.5 91 0.5 CALM 0 0 0 0 1026.1 1026.0 0.0
24/03:30am 5.0 2.3 3.5 90 0.6 NW 7 9 4 5 1025.9 1025.8 0.0
24/03:00am 5.2 2.7 3.7 90 0.6 ENE 6 7 3 4 1026.0 1025.9 0.0
24/02:30am 5.9 4.6 4.2 89 0.7 CALM 0 0 0 0 1026.2 1026.1 0.0
24/02:00am 5.8 3.2 4.1 89 0.7 ENE 7 9 4 5 1025.9 1025.8 0.0
24/01:30am 6.0 4.7 4.0 87 0.8 CALM 0 0 0 0 1026.3 1026.2 0.0
24/01:00am 6.9 5.0 4.9 87 0.9 ENE 4 6 2 3 1026.2 1026.1 0.0
24/12:30am 7.4 6.3 4.9 84 1.1 CALM 0 0 0 0 1026.6 1026.5 0.0
24/12:00am 7.8 5.6 5.4 85 1.1 ENE 6 7 3 4 1026.7 1026.6 0.0
 
Date/Time
CST
Temp
°C
App
Temp
°C
Dew
Point
°C
Rel
Hum
%
Delta-T
°C
Wind Press
QNH
hPa
Press
MSL
hPa
Rain since
9am
mm
Dir  Spd
km/h
Gust
km/h
Spd
kts
Gust
kts
23/11:30pm 7.6 5.1 4.7 82 1.3 ENE 7 9 4 5 1026.9 1026.8 0.0
23/11:00pm 9.0 8.0 5.7 80 1.5 CALM 0 0 0 0 1027.3 1027.2 0.0
23/10:30pm 10.2 9.3 6.2 76 1.9 CALM 0 0 0 0 1027.5 1027.4 0.0
23/10:00pm 12.0 9.9 6.7 70 2.5 ESE 7 9 4 5 1027.6 1027.5 0.0
23/09:30pm 12.6 10.6 6.9 68 2.7 ESE 7 11 4 6 1027.5 1027.4 0.0
23/09:00pm 13.5 11.1 7.1 65 3.1 ESE 9 13 5 7 1027.5 1027.4 0.0
23/08:30pm 14.1 11.4 7.2 63 3.4 SE 11 15 6 8 1027.4 1027.3 0.0
23/08:00pm 15.1 11.6 7.2 59 3.9 SSE 15 20 8 11 1027.3 1027.2 0.0
23/07:30pm 15.9 11.9 6.6 54 4.5 SSE 17 24 9 13 1027.1 1027.0 0.0
23/07:00pm 16.6 12.2 6.7 52 4.9 SSE 19 24 10 13 1026.9 1026.8 0.0
23/06:30pm 17.4 13.4 6.6 49 5.3 SSE 17 24 9 13 1026.5 1026.4 0.0
23/06:00pm 18.3 13.7 5.8 44 6.1 S 19 28 10 15 1026.1 1026.0 0.0
23/05:30pm 19.4 14.6 5.5 40 6.8 SSE 20 30 11 16 1025.7 1025.6 0.0
23/05:00pm 20.4 15.5 5.2 37 7.5 SSE 20 30 11 16 1025.3 1025.1 0.0
23/04:30pm 21.3 16.8 4.4 33 8.2 SSE 17 24 9 13 1025.2 1025.0 0.0
23/04:00pm 21.6 16.6 4.7 33 8.3 S 20 30 11 16 1025.0 1024.8 0.0
23/03:30pm 21.7 17.4 5.2 34 8.2 S 17 26 9 14 1025.1 1024.9 0.0
23/03:00pm 21.3 16.5 4.8 34 8.1 S 19 26 10 14 1025.3 1025.1 0.0
23/02:30pm 21.0 16.8 5.8 37 7.6 SSE 17 26 9 14 1025.5 1025.4 0.0
23/02:00pm 21.6 17.9 6.3 37 7.8 SSE 15 24 8 13 1025.7 1025.6 0.0
23/01:30pm 20.6 16.9 6.5 40 7.1 S 15 28 8 15 1026.1 1026.0 0.0
23/01:00pm 20.2 16.2 6.5 41 6.9 SSW 17 28 9 15 1026.6 1026.5 0.0
23/12:30pm 19.7 15.7 6.8 43 6.5 S 17 24 9 13 1027.2 1027.1 0.0
23/12:00pm 19.4 15.0 7.5 46 6.1 SSE 20 30 11 16 1027.6 1027.5 0.0
23/11:30am 19.0 15.0 8.1 49 5.6 SSE 19 26 10 14 1028.1 1028.0 0.0
23/11:00am 17.8 14.1 7.8 52 5.1 ESE 17 22 9 12 1028.3 1028.2 0.0
23/10:30am 16.5 13.5 9.2 62 3.8 SE 15 24 8 13 1028.5 1028.4 0.0
23/10:00am 14.5 12.6 8.9 69 2.9 SSE 9 15 5 8 1028.6 1028.5 0.0
23/09:30am 12.8 10.8 8.5 75 2.1 S 9 13 5 7 1028.7 1028.6 0.0
23/09:00am 11.1 8.9 8.0 81 1.5 S 9 11 5 6 1028.8 1028.7 0.0
23/08:30am 9.6 8.0 8.0 90 0.8 SSW 6 7 3 4 1028.6 1028.5 0.0
23/08:00am 8.3 7.7 7.2 93 0.5 CALM 0 0 0 0 1028.3 1028.2 0.0
23/07:30am 5.9 4.8 4.9 93 0.4 CALM 0 0 0 0 1027.9 1027.8 0.0
23/07:00am 5.0 3.7 4.0 93 0.4 CALM 0 0 0 0 1027.7 1027.6 0.0
23/06:30am 4.8 1.7 3.6 92 0.5 NE 9 11 5 6 1027.3 1027.2 0.0
23/06:00am 4.8 3.4 3.5 91 0.5 CALM 0 0 0 0 1027.3 1027.2 0.0
23/05:30am 5.2 2.7 3.9 91 0.5 NE 6 7 3 4 1027.1 1027.0 0.0
23/05:00am 5.3 2.7 4.0 91 0.6 NE 7 9 4 5 1027.0 1026.9 0.0
23/04:30am 6.1 4.9 4.7 91 0.6 CALM 0 0 0 0 1026.8 1026.7 0.0
23/04:00am 6.0 4.8 4.5 90 0.6 CALM 0 0 0 0 1026.6 1026.5 0.0
23/03:30am 6.6 4.1 4.9 89 0.7 NE 7 7 4 4 1026.7 1026.6 0.0
23/03:00am 7.4 6.4 5.5 88 0.8 CALM 0 0 0 0 1026.8 1026.7 0.0
23/02:30am 7.9 5.7 5.2 83 1.2 SSE 6 9 3 5 1027.0 1026.9 0.0
23/02:00am 9.8 7.8 7.2 84 1.2 ESE 7 9 4 5 1027.2 1027.1 0.0
23/01:30am 9.4 7.5 6.5 82 1.3 SSE 6 7 3 4 1027.6 1027.5 0.0
23/01:00am 9.0 7.0 6.1 82 1.3 S 6 7 3 4 1027.6 1027.5 0.0
23/12:30am 8.1 7.1 5.4 83 1.2 CALM 0 0 0 0 1027.5 1027.4 0.0
23/12:00am 8.3 7.3 5.6 83 1.2 CALM 0 0 0 0 1027.5 1027.4 0.0
 
Date/Time
CST
Temp
°C
App
Temp
°C
Dew
Point
°C
Rel
Hum
%
Delta-T
°C
Wind Press
QNH
hPa
Press
MSL
hPa
Rain since
9am
mm
Dir  Spd
km/h
Gust
km/h
Spd
kts
Gust
kts
22/11:30pm 8.5 7.1 5.4 81 1.4 W 2 6 1 3 1027.5 1027.4 0.0
22/11:00pm 9.1 6.9 5.5 78 1.6 WNW 6 7 3 4 1027.7 1027.6 0.0
22/10:30pm 11.3 9.2 5.8 69 2.5 ESE 6 7 3 4 1027.9 1027.8 0.0
22/10:00pm 12.0 9.7 5.9 66 2.9 ESE 7 11 4 6 1028.0 1027.9 0.0
22/09:30pm 12.4 9.7 5.8 64 3.1 ESE 9 13 5 7 1027.9 1027.8 0.0
22/09:00pm 13.2 10.1 5.6 60 3.6 SE 11 15 6 8 1027.7 1027.6 0.0
22/08:30pm 13.8 10.7 5.7 58 3.8 SE 11 15 6 8 1027.8 1027.7 0.0
22/08:00pm 14.7 11.3 5.8 55 4.3 SE 13 19 7 10 1027.6 1027.5 0.0
22/07:30pm 14.9 11.8 5.7 54 4.4 ESE 11 17 6 9 1027.3 1027.2 0.0
22/07:00pm 15.9 12.1 5.8 51 4.9 ESE 15 19 8 10 1027.1 1027.0 0.0
22/06:30pm 16.7 12.5 5.6 48 5.3 ESE 17 22 9 12 1026.7 1026.6 0.0
22/06:00pm 17.7 13.3 5.0 43 6.1 SE 17 28 9 15 1026.4 1026.3 0.0
22/05:30pm 18.7 13.9 4.8 40 6.7 SE 19 28 10 15 1026.1 1026.0 0.0
22/05:00pm 19.6 14.7 4.1 36 7.4 SSE 19 28 10 15 1025.7 1025.6 0.0
22/04:30pm 20.0 15.6 4.5 36 7.5 SSE 17 24 9 13 1025.5 1025.4 0.0
22/04:00pm 19.9 15.1 4.8 37 7.4 SSE 19 28 10 15 1025.4 1025.2 0.0
22/03:30pm 19.5 14.7 4.4 37 7.2 SSE 19 30 10 16 1025.4 1025.2 0.0
22/03:00pm 20.4 15.9 4.0 34 7.9 S 17 26 9 14 1025.3 1025.1 0.0
22/02:30pm 19.4 15.0 4.7 38 7.1 SSE 17 30 9 16 1025.5 1025.4 0.0
22/02:00pm 20.2 15.9 5.4 38 7.3 SSE 17 22 9 12 1025.6 1025.5 0.0
22/01:30pm 19.2 15.7 5.3 40 6.8 SSE 13 28 7 15 1025.7 1025.6 0.0
22/01:00pm 18.6 14.3 5.1 41 6.6 SE 17 22 9 12 1025.9 1025.8 0.0
22/12:30pm 18.3 14.3 4.8 41 6.5 SSE 15 26 8 14 1026.1 1026.0 0.0
22/12:00pm 17.8 13.4 4.7 42 6.2 SSE 17 24 9 13 1026.6 1026.5 0.0
22/11:30am 17.5 13.2 5.1 44 5.9 SSE 17 24 9 13 1026.9 1026.8 0.0
22/11:00am 16.7 12.2 4.1 43 5.9 SSE 17 24 9 13 1027.4 1027.3 0.0
22/10:30am 16.6 11.8 4.6 45 5.6 SSE 19 26 10 14 1027.6 1027.5 0.0
22/10:00am 15.7 11.0 5.3 50 5.0 SSE 19 26 10 14 1027.9 1027.8 0.0
22/09:30am 13.9 10.7 6.7 62 3.5 SSE 13 17 7 9 1027.9 1027.8 0.0
22/09:00am 12.1 9.5 7.6 74 2.2 S 11 15 6 8 1028.0 1027.9 0.0
22/08:30am 10.3 8.8 8.6 89 0.8 SSW 6 9 3 5 1027.8 1027.7 0.0
22/08:00am 9.0 8.6 8.1 94 0.4 CALM 0 0 0 0 1027.4 1027.3 0.0
22/07:30am 5.8 3.3 4.8 93 0.4 N 7 9 4 5 1026.9 1026.8 0.0
22/07:00am 5.1 2.7 4.1 93 0.4 N 6 7 3 4 1026.9 1026.8 0.0
22/06:30am 5.7 3.4 4.7 93 0.4 N 6 7 3 4 1026.6 1026.5 0.0
22/06:00am 5.6 4.4 4.6 93 0.4 CALM 0 6 0 3 1026.2 1026.1 0.0
22/05:30am 5.5 3.9 4.3 92 0.5 ENE 2 7 1 4 1025.9 1025.8 0.0
22/05:00am 5.6 4.4 4.4 92 0.5 CALM 0 0 0 0 1025.8 1025.7 0.0
22/04:30am 5.9 4.7 4.7 92 0.5 CALM 0 0 0 0 1025.6 1025.5 0.0
22/04:00am 6.5 5.4 5.3 92 0.5 CALM 0 0 0 0 1025.4 1025.2 0.0
22/03:30am 7.0 6.0 5.6 91 0.6 CALM 0 0 0 0 1025.4 1025.2 0.0
22/03:00am 7.5 6.6 6.0 90 0.7 CALM 0 0 0 0 1025.2 1025.0 0.0
22/02:30am 8.3 7.6 6.8 90 0.7 CALM 0 0 0 0 1025.2 1025.0 0.0
22/02:00am 9.0 8.4 7.5 90 0.7 CALM 0 0 0 0 1025.2 1025.0 0.0
22/01:30am 9.3 8.7 7.3 87 0.9 CALM 0 0 0 0 1025.3 1025.1 0.0
22/01:00am 10.0 8.4 7.8 86 1.1 SSE 6 7 3 4 1025.4 1025.2 0.0
22/12:30am 10.6 8.5 8.2 85 1.2 S 9 9 5 5 1025.5 1025.4 0.0
22/12:00am 11.4 9.0 8.8 84 1.3 SSW 11 15 6 8 1025.8 1025.7 0.0
 
Date/Time
CST
Temp
°C
App
Temp
°C
Dew
Point
°C
Rel
Hum
%
Delta-T
°C
Wind Press
QNH
hPa
Press
MSL
hPa
Rain since
9am
mm
Dir  Spd
km/h
Gust
km/h
Spd
kts
Gust
kts
21/11:30pm 12.2 10.7 9.2 82 1.5 S 7 9 4 5 1025.9 1025.8 0.0
21/11:00pm 12.3 10.8 9.1 81 1.6 S 7 9 4 5 1026.1 1026.0 0.0
21/10:30pm 12.2 10.4 9.4 83 1.4 SSW 9 11 5 6 1026.1 1026.0 0.0
21/10:00pm 11.8 11.7 9.4 85 1.2 CALM 0 0 0 0 1025.9 1025.8 0.0
21/09:30pm 11.4 9.8 8.6 83 1.4 SSW 7 9 4 5 1025.7 1025.6 0.0
21/09:00pm 11.8 9.8 8.6 81 1.6 SSW 9 13 5 7 1025.2 1025.0 0.0
21/08:30pm 12.2 11.9 8.7 79 1.7 CALM 0 0 0 0 1024.8 1024.6 0.0
21/08:00pm 13.0 11.6 8.7 75 2.2 S 6 7 3 4 1024.8 1024.6 0.0
21/07:30pm 13.4 11.4 8.5 72 2.4 SSW 9 13 5 7 1024.7 1024.5 0.0
21/07:00pm 14.0 10.4 8.2 68 2.9 SW 17 20 9 11 1024.3 1024.1 0.0
21/06:30pm 14.7 10.0 7.7 63 3.5 SW 22 30 12 16 1023.8 1023.6 0.0
21/06:00pm 15.9 10.9 8.2 60 3.9 SSW 24 32 13 17 1023.2 1023.0 0.0
21/05:30pm 16.9 11.1 7.8 55 4.6 SSW 28 33 15 18 1022.8 1022.6 0.0

Other formats

Comma delimited format used in spreadsheet applications
http://www.bom.gov.au/fwo/IDS60801/IDS60801.95654.axf

JavaScript Object Notation format (JSON) in row-major order
http://www.bom.gov.au/fwo/IDS60801/IDS60801.95654.json

Data quality

Most of these data are generated automatically and are frequently updated. Quality checks on data are not normally performed. It is possible for incorrect values to appear. Refer to information at About Latest Weather Observations and please check the disclaimer before using these data.